sensor_id;sensor_type;location;lat;lon;timestamp;P1;durP1;ratioP1;P2;durP2;ratioP2
36751;SDS011;22718;49.494;7.036;2023-12-20T00:02:10;9.75;;;2.65;;
36751;SDS011;22718;49.494;7.036;2023-12-20T00:04:42;10.65;;;3.25;;
36751;SDS011;22718;49.494;7.036;2023-12-20T00:07:08;12.63;;;2.70;;
36751;SDS011;22718;49.494;7.036;2023-12-20T00:09:52;10.55;;;2.38;;
36751;SDS011;22718;49.494;7.036;2023-12-20T00:12:38;9.75;;;2.45;;
36751;SDS011;22718;49.494;7.036;2023-12-20T00:15:04;11.05;;;2.90;;
36751;SDS011;22718;49.494;7.036;2023-12-20T00:17:35;8.65;;;1.90;;
36751;SDS011;22718;49.494;7.036;2023-12-20T00:20:11;9.20;;;1.98;;
36751;SDS011;22718;49.494;7.036;2023-12-20T00:23:21;10.35;;;1.98;;
36751;SDS011;22718;49.494;7.036;2023-12-20T00:26:12;7.07;;;2.03;;
36751;SDS011;22718;49.494;7.036;2023-12-20T00:29:04;5.43;;;1.30;;
36751;SDS011;22718;49.494;7.036;2023-12-20T00:34:32;5.53;;;1.73;;
36751;SDS011;22718;49.494;7.036;2023-12-20T00:37:32;11.60;;;1.60;;
36751;SDS011;22718;49.494;7.036;2023-12-20T00:40:19;4.57;;;1.33;;
36751;SDS011;22718;49.494;7.036;2023-12-20T00:42:52;7.85;;;1.30;;
36751;SDS011;22718;49.494;7.036;2023-12-20T00:45:24;8.48;;;1.23;;
36751;SDS011;22718;49.494;7.036;2023-12-20T00:47:53;3.88;;;0.88;;
36751;SDS011;22718;49.494;7.036;2023-12-20T00:50:37;5.55;;;1.20;;
36751;SDS011;22718;49.494;7.036;2023-12-20T00:53:24;8.00;;;1.65;;
36751;SDS011;22718;49.494;7.036;2023-12-20T00:56:33;3.67;;;1.20;;
36751;SDS011;22718;49.494;7.036;2023-12-20T00:59:12;12.65;;;1.67;;
36751;SDS011;22718;49.494;7.036;2023-12-20T01:01:49;5.57;;;1.35;;
36751;SDS011;22718;49.494;7.036;2023-12-20T01:04:35;4.80;;;1.33;;
36751;SDS011;22718;49.494;7.036;2023-12-20T01:07:06;6.40;;;1.53;;
36751;SDS011;22718;49.494;7.036;2023-12-20T01:10:21;6.43;;;1.70;;
36751;SDS011;22718;49.494;7.036;2023-12-20T01:13:13;6.25;;;1.67;;
36751;SDS011;22718;49.494;7.036;2023-12-20T01:16:08;8.88;;;1.83;;
36751;SDS011;22718;49.494;7.036;2023-12-20T01:19:21;8.13;;;1.55;;
36751;SDS011;22718;49.494;7.036;2023-12-20T01:22:41;10.32;;;2.05;;
36751;SDS011;22718;49.494;7.036;2023-12-20T01:26:23;15.95;;;3.03;;
36751;SDS011;22718;49.494;7.036;2023-12-20T01:32:23;12.70;;;2.92;;
36751;SDS011;22718;49.494;7.036;2023-12-20T01:42:29;16.02;;;2.25;;
36751;SDS011;22718;49.494;7.036;2023-12-20T01:49:22;47.92;;;5.03;;
36751;SDS011;22718;49.494;7.036;2023-12-20T01:52:55;66.80;;;6.80;;
36751;SDS011;22718;49.494;7.036;2023-12-20T01:59:43;41.90;;;5.47;;
36751;SDS011;22718;49.494;7.036;2023-12-20T02:06:10;88.05;;;8.65;;
36751;SDS011;22718;49.494;7.036;2023-12-20T02:09:33;93.80;;;10.57;;
36751;SDS011;22718;49.494;7.036;2023-12-20T02:12:27;97.57;;;12.02;;
36751;SDS011;22718;49.494;7.036;2023-12-20T02:21:04;151.68;;;11.70;;
36751;SDS011;22718;49.494;7.036;2023-12-20T02:23:46;147.15;;;13.82;;
36751;SDS011;22718;49.494;7.036;2023-12-20T02:26:48;231.55;;;19.15;;
36751;SDS011;22718;49.494;7.036;2023-12-20T02:29:29;189.40;;;15.10;;
36751;SDS011;22718;49.494;7.036;2023-12-20T02:32:10;179.57;;;16.20;;
36751;SDS011;22718;49.494;7.036;2023-12-20T02:34:41;167.07;;;13.63;;
36751;SDS011;22718;49.494;7.036;2023-12-20T02:37:32;167.93;;;14.63;;
36751;SDS011;22718;49.494;7.036;2023-12-20T02:40:01;211.55;;;15.43;;
36751;SDS011;22718;49.494;7.036;2023-12-20T02:42:55;249.40;;;19.88;;
36751;SDS011;22718;49.494;7.036;2023-12-20T02:45:36;325.30;;;23.15;;
36751;SDS011;22718;49.494;7.036;2023-12-20T02:48:14;220.38;;;16.48;;
36751;SDS011;22718;49.494;7.036;2023-12-20T02:50:46;166.10;;;15.15;;
36751;SDS011;22718;49.494;7.036;2023-12-20T02:53:17;160.18;;;13.07;;
36751;SDS011;22718;49.494;7.036;2023-12-20T02:55:47;134.70;;;13.13;;
36751;SDS011;22718;49.494;7.036;2023-12-20T02:58:16;219.23;;;16.73;;
36751;SDS011;22718;49.494;7.036;2023-12-20T03:00:43;214.75;;;16.88;;
36751;SDS011;22718;49.494;7.036;2023-12-20T03:03:22;130.77;;;12.15;;
36751;SDS011;22718;49.494;7.036;2023-12-20T03:05:54;86.72;;;9.98;;
36751;SDS011;22718;49.494;7.036;2023-12-20T03:08:21;107.53;;;12.20;;
36751;SDS011;22718;49.494;7.036;2023-12-20T03:10:49;97.82;;;10.55;;
36751;SDS011;22718;49.494;7.036;2023-12-20T03:13:31;74.80;;;10.50;;
36751;SDS011;22718;49.494;7.036;2023-12-20T03:15:59;78.45;;;10.70;;
36751;SDS011;22718;49.494;7.036;2023-12-20T03:18:35;46.05;;;7.45;;
36751;SDS011;22718;49.494;7.036;2023-12-20T03:21:10;26.02;;;5.55;;
36751;SDS011;22718;49.494;7.036;2023-12-20T03:23:37;15.88;;;4.32;;
36751;SDS011;22718;49.494;7.036;2023-12-20T03:26:07;13.63;;;3.65;;
36751;SDS011;22718;49.494;7.036;2023-12-20T03:28:57;17.20;;;4.20;;
36751;SDS011;22718;49.494;7.036;2023-12-20T03:31:25;12.13;;;3.17;;
36751;SDS011;22718;49.494;7.036;2023-12-20T03:34:03;8.43;;;3.28;;
36751;SDS011;22718;49.494;7.036;2023-12-20T03:36:35;8.32;;;2.25;;
36751;SDS011;22718;49.494;7.036;2023-12-20T03:39:10;11.80;;;3.03;;
36751;SDS011;22718;49.494;7.036;2023-12-20T03:41:49;9.32;;;2.72;;
36751;SDS011;22718;49.494;7.036;2023-12-20T03:44:22;10.80;;;2.85;;
36751;SDS011;22718;49.494;7.036;2023-12-20T03:46:53;19.92;;;5.47;;
36751;SDS011;22718;49.494;7.036;2023-12-20T03:49:25;10.25;;;3.00;;
36751;SDS011;22718;49.494;7.036;2023-12-20T03:51:57;12.50;;;3.45;;
36751;SDS011;22718;49.494;7.036;2023-12-20T03:54:24;7.82;;;3.67;;
36751;SDS011;22718;49.494;7.036;2023-12-20T03:56:49;11.25;;;4.07;;
36751;SDS011;22718;49.494;7.036;2023-12-20T03:59:19;11.60;;;3.72;;
36751;SDS011;22718;49.494;7.036;2023-12-20T04:01:53;8.65;;;3.97;;
36751;SDS011;22718;49.494;7.036;2023-12-20T04:04:23;10.60;;;2.95;;
36751;SDS011;22718;49.494;7.036;2023-12-20T04:07:00;8.48;;;3.13;;
36751;SDS011;22718;49.494;7.036;2023-12-20T04:09:29;8.02;;;2.65;;
36751;SDS011;22718;49.494;7.036;2023-12-20T04:12:02;8.32;;;2.83;;
36751;SDS011;22718;49.494;7.036;2023-12-20T04:14:30;9.48;;;2.60;;
36751;SDS011;22718;49.494;7.036;2023-12-20T04:16:57;8.90;;;2.50;;
36751;SDS011;22718;49.494;7.036;2023-12-20T04:19:26;5.50;;;2.17;;
36751;SDS011;22718;49.494;7.036;2023-12-20T04:21:52;6.68;;;2.45;;
36751;SDS011;22718;49.494;7.036;2023-12-20T04:24:52;5.35;;;1.60;;
36751;SDS011;22718;49.494;7.036;2023-12-20T04:27:19;8.35;;;1.73;;
36751;SDS011;22718;49.494;7.036;2023-12-20T04:29:52;7.72;;;1.67;;
36751;SDS011;22718;49.494;7.036;2023-12-20T04:32:22;4.85;;;1.92;;
36751;SDS011;22718;49.494;7.036;2023-12-20T04:34:49;5.32;;;2.03;;
36751;SDS011;22718;49.494;7.036;2023-12-20T04:37:17;13.82;;;2.13;;
36751;SDS011;22718;49.494;7.036;2023-12-20T04:39:56;8.68;;;1.98;;
36751;SDS011;22718;49.494;7.036;2023-12-20T04:42:25;6.20;;;1.77;;
36751;SDS011;22718;49.494;7.036;2023-12-20T04:44:51;6.95;;;2.08;;
36751;SDS011;22718;49.494;7.036;2023-12-20T04:49:49;6.97;;;1.67;;
36751;SDS011;22718;49.494;7.036;2023-12-20T04:52:16;12.88;;;2.40;;
36751;SDS011;22718;49.494;7.036;2023-12-20T04:54:41;7.18;;;2.08;;
36751;SDS011;22718;49.494;7.036;2023-12-20T04:57:16;10.07;;;1.88;;
36751;SDS011;22718;49.494;7.036;2023-12-20T04:59:48;9.03;;;1.70;;
36751;SDS011;22718;49.494;7.036;2023-12-20T05:02:19;9.05;;;1.35;;
36751;SDS011;22718;49.494;7.036;2023-12-20T05:04:47;10.27;;;1.85;;
36751;SDS011;22718;49.494;7.036;2023-12-20T05:07:23;8.82;;;2.03;;
36751;SDS011;22718;49.494;7.036;2023-12-20T05:09:52;10.05;;;2.25;;
36751;SDS011;22718;49.494;7.036;2023-12-20T05:12:24;6.07;;;1.40;;
36751;SDS011;22718;49.494;7.036;2023-12-20T05:14:51;11.60;;;2.28;;
36751;SDS011;22718;49.494;7.036;2023-12-20T05:17:17;5.70;;;1.13;;
36751;SDS011;22718;49.494;7.036;2023-12-20T05:19:58;12.57;;;1.50;;
36751;SDS011;22718;49.494;7.036;2023-12-20T05:22:28;6.28;;;1.05;;
36751;SDS011;22718;49.494;7.036;2023-12-20T05:24:54;9.13;;;1.80;;
36751;SDS011;22718;49.494;7.036;2023-12-20T05:27:19;8.43;;;1.40;;
36751;SDS011;22718;49.494;7.036;2023-12-20T05:29:46;7.07;;;1.05;;
36751;SDS011;22718;49.494;7.036;2023-12-20T05:32:11;11.68;;;1.70;;
36751;SDS011;22718;49.494;7.036;2023-12-20T05:34:37;4.85;;;1.38;;
36751;SDS011;22718;49.494;7.036;2023-12-20T05:37:04;6.40;;;0.85;;
36751;SDS011;22718;49.494;7.036;2023-12-20T05:39:30;4.47;;;0.90;;
36751;SDS011;22718;49.494;7.036;2023-12-20T05:41:56;6.57;;;1.33;;
36751;SDS011;22718;49.494;7.036;2023-12-20T05:44:24;5.13;;;0.82;;
36751;SDS011;22718;49.494;7.036;2023-12-20T05:46:51;6.15;;;0.70;;
36751;SDS011;22718;49.494;7.036;2023-12-20T05:49:17;7.63;;;0.70;;
36751;SDS011;22718;49.494;7.036;2023-12-20T05:54:13;9.75;;;0.95;;
36751;SDS011;22718;49.494;7.036;2023-12-20T05:56:39;5.63;;;0.75;;
36751;SDS011;22718;49.494;7.036;2023-12-20T05:59:05;8.52;;;0.80;;
36751;SDS011;22718;49.494;7.036;2023-12-20T06:01:34;10.63;;;0.98;;
36751;SDS011;22718;49.494;7.036;2023-12-20T06:04:00;5.75;;;0.68;;
36751;SDS011;22718;49.494;7.036;2023-12-20T06:06:26;5.18;;;0.82;;
36751;SDS011;22718;49.494;7.036;2023-12-20T06:08:51;7.32;;;1.08;;
36751;SDS011;22718;49.494;7.036;2023-12-20T06:11:20;5.68;;;0.80;;
36751;SDS011;22718;49.494;7.036;2023-12-20T06:16:19;4.03;;;0.60;;
36751;SDS011;22718;49.494;7.036;2023-12-20T06:18:44;7.22;;;0.60;;
36751;SDS011;22718;49.494;7.036;2023-12-20T06:21:10;4.15;;;0.95;;
36751;SDS011;22718;49.494;7.036;2023-12-20T06:23:46;3.08;;;0.50;;
36751;SDS011;22718;49.494;7.036;2023-12-20T06:26:17;14.52;;;0.90;;
36751;SDS011;22718;49.494;7.036;2023-12-20T06:28:52;20.40;;;1.27;;
36751;SDS011;22718;49.494;7.036;2023-12-20T06:31:20;8.68;;;0.77;;
36751;SDS011;22718;49.494;7.036;2023-12-20T06:33:46;13.30;;;1.45;;
36751;SDS011;22718;49.494;7.036;2023-12-20T06:36:12;8.38;;;1.52;;
36751;SDS011;22718;49.494;7.036;2023-12-20T06:38:38;5.80;;;1.08;;
36751;SDS011;22718;49.494;7.036;2023-12-20T06:41:04;10.60;;;1.80;;
36751;SDS011;22718;49.494;7.036;2023-12-20T06:46:00;13.82;;;1.40;;
36751;SDS011;22718;49.494;7.036;2023-12-20T06:48:28;7.85;;;1.38;;
36751;SDS011;22718;49.494;7.036;2023-12-20T06:50:54;15.52;;;1.85;;
36751;SDS011;22718;49.494;7.036;2023-12-20T06:53:20;7.75;;;1.40;;
36751;SDS011;22718;49.494;7.036;2023-12-20T06:55:45;13.13;;;1.80;;
36751;SDS011;22718;49.494;7.036;2023-12-20T06:58:11;12.13;;;2.20;;
36751;SDS011;22718;49.494;7.036;2023-12-20T07:00:37;10.98;;;1.75;;
36751;SDS011;22718;49.494;7.036;2023-12-20T07:03:03;11.43;;;1.75;;
36751;SDS011;22718;49.494;7.036;2023-12-20T07:05:30;6.38;;;1.42;;
36751;SDS011;22718;49.494;7.036;2023-12-20T07:07:56;6.88;;;1.70;;
36751;SDS011;22718;49.494;7.036;2023-12-20T07:10:22;13.43;;;2.22;;
36751;SDS011;22718;49.494;7.036;2023-12-20T07:12:47;7.82;;;1.17;;
36751;SDS011;22718;49.494;7.036;2023-12-20T07:15:14;9.00;;;1.17;;
36751;SDS011;22718;49.494;7.036;2023-12-20T07:17:40;17.27;;;1.48;;
36751;SDS011;22718;49.494;7.036;2023-12-20T07:20:06;9.13;;;1.98;;
36751;SDS011;22718;49.494;7.036;2023-12-20T07:22:34;12.80;;;2.15;;
36751;SDS011;22718;49.494;7.036;2023-12-20T07:25:00;11.32;;;2.38;;
36751;SDS011;22718;49.494;7.036;2023-12-20T07:27:28;7.38;;;1.77;;
36751;SDS011;22718;49.494;7.036;2023-12-20T07:29:54;11.32;;;2.20;;
36751;SDS011;22718;49.494;7.036;2023-12-20T07:32:20;17.50;;;2.70;;
36751;SDS011;22718;49.494;7.036;2023-12-20T07:34:45;13.68;;;3.10;;
36751;SDS011;22718;49.494;7.036;2023-12-20T07:37:13;12.52;;;1.83;;
36751;SDS011;22718;49.494;7.036;2023-12-20T07:39:41;16.40;;;3.85;;
36751;SDS011;22718;49.494;7.036;2023-12-20T07:42:07;13.25;;;3.95;;
36751;SDS011;22718;49.494;7.036;2023-12-20T07:44:33;11.60;;;2.10;;
36751;SDS011;22718;49.494;7.036;2023-12-20T07:47:08;9.73;;;2.35;;
36751;SDS011;22718;49.494;7.036;2023-12-20T07:49:34;12.10;;;2.83;;
36751;SDS011;22718;49.494;7.036;2023-12-20T07:52:02;8.32;;;2.05;;
36751;SDS011;22718;49.494;7.036;2023-12-20T07:54:28;12.27;;;2.63;;
36751;SDS011;22718;49.494;7.036;2023-12-20T07:56:53;20.52;;;3.00;;
36751;SDS011;22718;49.494;7.036;2023-12-20T07:59:19;19.13;;;3.70;;
36751;SDS011;22718;49.494;7.036;2023-12-20T08:01:45;13.88;;;3.15;;
36751;SDS011;22718;49.494;7.036;2023-12-20T08:04:13;13.88;;;2.85;;
36751;SDS011;22718;49.494;7.036;2023-12-20T08:06:38;13.73;;;3.50;;
36751;SDS011;22718;49.494;7.036;2023-12-20T08:09:04;13.70;;;3.60;;
36751;SDS011;22718;49.494;7.036;2023-12-20T08:11:33;16.95;;;3.40;;
36751;SDS011;22718;49.494;7.036;2023-12-20T08:14:05;11.25;;;4.47;;
36751;SDS011;22718;49.494;7.036;2023-12-20T08:16:31;13.45;;;3.38;;
36751;SDS011;22718;49.494;7.036;2023-12-20T08:18:56;13.85;;;3.30;;
36751;SDS011;22718;49.494;7.036;2023-12-20T08:21:22;18.17;;;3.63;;
36751;SDS011;22718;49.494;7.036;2023-12-20T08:23:48;16.55;;;4.15;;
36751;SDS011;22718;49.494;7.036;2023-12-20T08:26:14;15.93;;;4.63;;
36751;SDS011;22718;49.494;7.036;2023-12-20T08:28:58;19.70;;;5.38;;
36751;SDS011;22718;49.494;7.036;2023-12-20T08:31:24;18.80;;;3.95;;
36751;SDS011;22718;49.494;7.036;2023-12-20T08:33:53;19.67;;;4.13;;
36751;SDS011;22718;49.494;7.036;2023-12-20T08:36:27;25.95;;;5.78;;
36751;SDS011;22718;49.494;7.036;2023-12-20T08:38:58;15.02;;;3.97;;
36751;SDS011;22718;49.494;7.036;2023-12-20T08:41:25;23.38;;;4.18;;
36751;SDS011;22718;49.494;7.036;2023-12-20T08:43:51;23.08;;;4.53;;
36751;SDS011;22718;49.494;7.036;2023-12-20T08:46:17;16.42;;;4.13;;
36751;SDS011;22718;49.494;7.036;2023-12-20T08:48:45;20.13;;;4.68;;
36751;SDS011;22718;49.494;7.036;2023-12-20T08:51:10;13.73;;;5.20;;
36751;SDS011;22718;49.494;7.036;2023-12-20T08:53:38;23.05;;;5.13;;
36751;SDS011;22718;49.494;7.036;2023-12-20T08:56:04;18.10;;;5.05;;
36751;SDS011;22718;49.494;7.036;2023-12-20T08:58:30;11.25;;;3.80;;
36751;SDS011;22718;49.494;7.036;2023-12-20T09:03:27;24.05;;;4.18;;
36751;SDS011;22718;49.494;7.036;2023-12-20T09:05:53;10.98;;;3.78;;
36751;SDS011;22718;49.494;7.036;2023-12-20T09:08:18;18.02;;;5.85;;
36751;SDS011;22718;49.494;7.036;2023-12-20T09:10:50;14.65;;;4.47;;
36751;SDS011;22718;49.494;7.036;2023-12-20T09:13:15;14.38;;;4.25;;
36751;SDS011;22718;49.494;7.036;2023-12-20T09:15:43;16.20;;;4.30;;
36751;SDS011;22718;49.494;7.036;2023-12-20T09:18:09;18.58;;;5.88;;
36751;SDS011;22718;49.494;7.036;2023-12-20T09:20:35;13.23;;;4.72;;
36751;SDS011;22718;49.494;7.036;2023-12-20T09:23:00;15.30;;;4.43;;
36751;SDS011;22718;49.494;7.036;2023-12-20T09:25:26;23.23;;;6.63;;
36751;SDS011;22718;49.494;7.036;2023-12-20T09:27:52;17.65;;;4.57;;
36751;SDS011;22718;49.494;7.036;2023-12-20T09:30:18;13.15;;;5.03;;
36751;SDS011;22718;49.494;7.036;2023-12-20T09:32:47;18.73;;;4.03;;
36751;SDS011;22718;49.494;7.036;2023-12-20T09:35:21;14.70;;;4.38;;
36751;SDS011;22718;49.494;7.036;2023-12-20T09:37:48;19.40;;;5.57;;
36751;SDS011;22718;49.494;7.036;2023-12-20T09:40:14;16.75;;;3.83;;
36751;SDS011;22718;49.494;7.036;2023-12-20T09:45:22;20.73;;;5.60;;
36751;SDS011;22718;49.494;7.036;2023-12-20T09:47:52;10.18;;;5.32;;
36751;SDS011;22718;49.494;7.036;2023-12-20T09:50:21;16.85;;;4.53;;
36751;SDS011;22718;49.494;7.036;2023-12-20T09:52:58;15.15;;;3.97;;
36751;SDS011;22718;49.494;7.036;2023-12-20T09:55:27;23.58;;;5.43;;
36751;SDS011;22718;49.494;7.036;2023-12-20T09:57:56;17.70;;;4.68;;
36751;SDS011;22718;49.494;7.036;2023-12-20T10:00:22;15.88;;;4.63;;
36751;SDS011;22718;49.494;7.036;2023-12-20T10:02:57;14.73;;;4.50;;
36751;SDS011;22718;49.494;7.036;2023-12-20T10:05:29;10.75;;;3.33;;
36751;SDS011;22718;49.494;7.036;2023-12-20T10:08:01;18.77;;;4.70;;
36751;SDS011;22718;49.494;7.036;2023-12-20T10:10:28;17.60;;;4.43;;
36751;SDS011;22718;49.494;7.036;2023-12-20T10:13:09;12.27;;;3.97;;
36751;SDS011;22718;49.494;7.036;2023-12-20T10:15:36;20.45;;;5.38;;
36751;SDS011;22718;49.494;7.036;2023-12-20T10:18:02;16.58;;;6.05;;
36751;SDS011;22718;49.494;7.036;2023-12-20T10:20:29;18.40;;;4.40;;
36751;SDS011;22718;49.494;7.036;2023-12-20T10:22:55;20.75;;;5.15;;
36751;SDS011;22718;49.494;7.036;2023-12-20T10:25:23;16.48;;;4.57;;
36751;SDS011;22718;49.494;7.036;2023-12-20T10:27:50;15.23;;;4.68;;
36751;SDS011;22718;49.494;7.036;2023-12-20T10:30:33;14.82;;;3.72;;
36751;SDS011;22718;49.494;7.036;2023-12-20T10:32:59;12.35;;;3.95;;
36751;SDS011;22718;49.494;7.036;2023-12-20T10:35:32;14.65;;;2.83;;
36751;SDS011;22718;49.494;7.036;2023-12-20T10:37:57;14.15;;;3.72;;
36751;SDS011;22718;49.494;7.036;2023-12-20T10:40:28;20.40;;;9.07;;
36751;SDS011;22718;49.494;7.036;2023-12-20T10:42:56;10.50;;;4.03;;
36751;SDS011;22718;49.494;7.036;2023-12-20T10:47:54;13.20;;;3.13;;
36751;SDS011;22718;49.494;7.036;2023-12-20T10:50:21;15.15;;;3.55;;
36751;SDS011;22718;49.494;7.036;2023-12-20T10:52:46;11.30;;;2.60;;
36751;SDS011;22718;49.494;7.036;2023-12-20T10:55:13;9.85;;;2.85;;
36751;SDS011;22718;49.494;7.036;2023-12-20T10:57:39;10.25;;;2.03;;
36751;SDS011;22718;49.494;7.036;2023-12-20T11:00:05;13.40;;;1.80;;
36751;SDS011;22718;49.494;7.036;2023-12-20T11:02:38;6.53;;;2.05;;
36751;SDS011;22718;49.494;7.036;2023-12-20T11:07:47;14.57;;;3.60;;
36751;SDS011;22718;49.494;7.036;2023-12-20T11:10:23;16.05;;;2.22;;
36751;SDS011;22718;49.494;7.036;2023-12-20T11:12:54;9.02;;;1.92;;
36751;SDS011;22718;49.494;7.036;2023-12-20T11:15:40;23.52;;;3.60;;
36751;SDS011;22718;49.494;7.036;2023-12-20T11:18:05;9.00;;;1.70;;
36751;SDS011;22718;49.494;7.036;2023-12-20T11:20:35;21.13;;;5.47;;
36751;SDS011;22718;49.494;7.036;2023-12-20T11:23:13;8.00;;;2.15;;
36751;SDS011;22718;49.494;7.036;2023-12-20T11:25:46;12.88;;;2.00;;
36751;SDS011;22718;49.494;7.036;2023-12-20T11:28:23;8.60;;;2.17;;
36751;SDS011;22718;49.494;7.036;2023-12-20T11:30:53;23.10;;;2.75;;
36751;SDS011;22718;49.494;7.036;2023-12-20T11:35:55;6.67;;;1.57;;
36751;SDS011;22718;49.494;7.036;2023-12-20T11:38:21;13.25;;;2.03;;
36751;SDS011;22718;49.494;7.036;2023-12-20T11:40:56;10.55;;;1.48;;
36751;SDS011;22718;49.494;7.036;2023-12-20T11:43:32;6.68;;;1.50;;
36751;SDS011;22718;49.494;7.036;2023-12-20T11:46:04;10.57;;;2.90;;
36751;SDS011;22718;49.494;7.036;2023-12-20T11:48:39;12.45;;;2.28;;
36751;SDS011;22718;49.494;7.036;2023-12-20T11:51:15;9.00;;;1.42;;
36751;SDS011;22718;49.494;7.036;2023-12-20T11:53:43;7.35;;;1.77;;
36751;SDS011;22718;49.494;7.036;2023-12-20T11:56:08;11.50;;;1.83;;
36751;SDS011;22718;49.494;7.036;2023-12-20T11:58:37;10.85;;;1.63;;
36751;SDS011;22718;49.494;7.036;2023-12-20T12:01:04;9.93;;;2.15;;
36751;SDS011;22718;49.494;7.036;2023-12-20T12:03:32;8.43;;;1.52;;
36751;SDS011;22718;49.494;7.036;2023-12-20T12:05:58;10.77;;;1.38;;
36751;SDS011;22718;49.494;7.036;2023-12-20T12:08:24;8.38;;;1.27;;
36751;SDS011;22718;49.494;7.036;2023-12-20T12:10:52;6.60;;;1.48;;
36751;SDS011;22718;49.494;7.036;2023-12-20T12:13:18;12.25;;;2.15;;
36751;SDS011;22718;49.494;7.036;2023-12-20T12:15:43;7.75;;;1.45;;
36751;SDS011;22718;49.494;7.036;2023-12-20T12:18:09;7.32;;;1.75;;
36751;SDS011;22718;49.494;7.036;2023-12-20T12:20:35;11.15;;;1.20;;
36751;SDS011;22718;49.494;7.036;2023-12-20T12:23:07;16.67;;;1.75;;
36751;SDS011;22718;49.494;7.036;2023-12-20T12:25:36;9.80;;;1.63;;
36751;SDS011;22718;49.494;7.036;2023-12-20T12:28:02;6.68;;;1.08;;
36751;SDS011;22718;49.494;7.036;2023-12-20T12:30:32;5.95;;;0.90;;
36751;SDS011;22718;49.494;7.036;2023-12-20T12:32:57;8.20;;;1.48;;
36751;SDS011;22718;49.494;7.036;2023-12-20T12:35:23;12.60;;;1.90;;
36751;SDS011;22718;49.494;7.036;2023-12-20T12:37:49;8.05;;;1.73;;
36751;SDS011;22718;49.494;7.036;2023-12-20T12:40:16;10.52;;;1.83;;
36751;SDS011;22718;49.494;7.036;2023-12-20T12:42:43;7.75;;;1.17;;
36751;SDS011;22718;49.494;7.036;2023-12-20T12:45:10;8.18;;;1.40;;
36751;SDS011;22718;49.494;7.036;2023-12-20T12:47:38;8.20;;;1.33;;
36751;SDS011;22718;49.494;7.036;2023-12-20T12:50:05;14.13;;;1.17;;
36751;SDS011;22718;49.494;7.036;2023-12-20T12:52:36;6.65;;;0.77;;
36751;SDS011;22718;49.494;7.036;2023-12-20T12:55:05;11.23;;;1.15;;
36751;SDS011;22718;49.494;7.036;2023-12-20T12:57:31;6.28;;;0.75;;
36751;SDS011;22718;49.494;7.036;2023-12-20T12:59:59;6.63;;;1.17;;
36751;SDS011;22718;49.494;7.036;2023-12-20T13:02:25;8.65;;;1.35;;
36751;SDS011;22718;49.494;7.036;2023-12-20T13:04:51;12.20;;;0.85;;
36751;SDS011;22718;49.494;7.036;2023-12-20T13:07:16;8.10;;;0.80;;
36751;SDS011;22718;49.494;7.036;2023-12-20T13:09:43;5.75;;;1.23;;
36751;SDS011;22718;49.494;7.036;2023-12-20T13:12:09;8.93;;;1.35;;
36751;SDS011;22718;49.494;7.036;2023-12-20T13:14:35;13.27;;;2.05;;
36751;SDS011;22718;49.494;7.036;2023-12-20T13:17:03;11.90;;;0.95;;
36751;SDS011;22718;49.494;7.036;2023-12-20T13:19:29;10.90;;;2.05;;
36751;SDS011;22718;49.494;7.036;2023-12-20T13:21:57;10.90;;;1.38;;
36751;SDS011;22718;49.494;7.036;2023-12-20T13:24:23;10.23;;;1.42;;
36751;SDS011;22718;49.494;7.036;2023-12-20T13:26:51;13.30;;;1.88;;
36751;SDS011;22718;49.494;7.036;2023-12-20T13:29:19;10.70;;;2.35;;
36751;SDS011;22718;49.494;7.036;2023-12-20T13:31:45;7.00;;;1.05;;
36751;SDS011;22718;49.494;7.036;2023-12-20T13:34:10;9.70;;;1.50;;
36751;SDS011;22718;49.494;7.036;2023-12-20T13:36:37;13.68;;;1.65;;
36751;SDS011;22718;49.494;7.036;2023-12-20T13:39:03;9.25;;;1.40;;
36751;SDS011;22718;49.494;7.036;2023-12-20T13:41:30;5.85;;;1.00;;
36751;SDS011;22718;49.494;7.036;2023-12-20T13:43:56;6.70;;;1.70;;
36751;SDS011;22718;49.494;7.036;2023-12-20T13:46:21;13.30;;;1.92;;
36751;SDS011;22718;49.494;7.036;2023-12-20T13:48:47;12.38;;;2.58;;
36751;SDS011;22718;49.494;7.036;2023-12-20T13:51:14;11.20;;;1.23;;
36751;SDS011;22718;49.494;7.036;2023-12-20T13:53:40;8.93;;;1.10;;
36751;SDS011;22718;49.494;7.036;2023-12-20T13:56:06;12.75;;;1.80;;
36751;SDS011;22718;49.494;7.036;2023-12-20T13:58:31;10.73;;;1.45;;
36751;SDS011;22718;49.494;7.036;2023-12-20T14:00:57;12.90;;;1.20;;
36751;SDS011;22718;49.494;7.036;2023-12-20T14:03:23;10.10;;;1.45;;
36751;SDS011;22718;49.494;7.036;2023-12-20T14:05:48;8.65;;;1.02;;
36751;SDS011;22718;49.494;7.036;2023-12-20T14:08:14;6.35;;;1.42;;
36751;SDS011;22718;49.494;7.036;2023-12-20T14:10:40;10.20;;;1.52;;
36751;SDS011;22718;49.494;7.036;2023-12-20T14:13:06;10.07;;;0.93;;
36751;SDS011;22718;49.494;7.036;2023-12-20T14:15:35;8.25;;;0.90;;
36751;SDS011;22718;49.494;7.036;2023-12-20T14:18:05;9.50;;;1.58;;
36751;SDS011;22718;49.494;7.036;2023-12-20T14:20:35;20.08;;;1.67;;
36751;SDS011;22718;49.494;7.036;2023-12-20T14:23:03;8.50;;;1.30;;
36751;SDS011;22718;49.494;7.036;2023-12-20T14:25:29;14.73;;;1.65;;
36751;SDS011;22718;49.494;7.036;2023-12-20T14:27:56;10.65;;;1.92;;
36751;SDS011;22718;49.494;7.036;2023-12-20T14:30:22;7.35;;;1.15;;
36751;SDS011;22718;49.494;7.036;2023-12-20T14:32:47;9.30;;;1.60;;
36751;SDS011;22718;49.494;7.036;2023-12-20T14:35:13;15.40;;;1.90;;
36751;SDS011;22718;49.494;7.036;2023-12-20T14:37:39;12.48;;;1.58;;
36751;SDS011;22718;49.494;7.036;2023-12-20T14:40:09;7.88;;;1.08;;
36751;SDS011;22718;49.494;7.036;2023-12-20T14:42:36;16.80;;;1.52;;
36751;SDS011;22718;49.494;7.036;2023-12-20T14:45:02;10.38;;;2.25;;
36751;SDS011;22718;49.494;7.036;2023-12-20T14:47:28;14.05;;;1.63;;
36751;SDS011;22718;49.494;7.036;2023-12-20T14:49:53;15.45;;;1.60;;
36751;SDS011;22718;49.494;7.036;2023-12-20T14:52:19;11.48;;;1.90;;
36751;SDS011;22718;49.494;7.036;2023-12-20T14:54:45;14.93;;;1.70;;
36751;SDS011;22718;49.494;7.036;2023-12-20T14:57:14;19.65;;;1.98;;
36751;SDS011;22718;49.494;7.036;2023-12-20T14:59:40;11.70;;;2.00;;
36751;SDS011;22718;49.494;7.036;2023-12-20T15:02:06;10.10;;;1.52;;
36751;SDS011;22718;49.494;7.036;2023-12-20T15:04:32;18.17;;;2.13;;
36751;SDS011;22718;49.494;7.036;2023-12-20T15:06:57;18.70;;;2.25;;
36751;SDS011;22718;49.494;7.036;2023-12-20T15:09:23;8.30;;;2.08;;
36751;SDS011;22718;49.494;7.036;2023-12-20T15:11:49;11.80;;;1.95;;
36751;SDS011;22718;49.494;7.036;2023-12-20T15:14:15;21.02;;;3.10;;
36751;SDS011;22718;49.494;7.036;2023-12-20T15:16:45;7.80;;;1.50;;
36751;SDS011;22718;49.494;7.036;2023-12-20T15:19:14;10.93;;;2.45;;
36751;SDS011;22718;49.494;7.036;2023-12-20T15:21:41;12.77;;;2.05;;
36751;SDS011;22718;49.494;7.036;2023-12-20T15:24:09;18.27;;;2.67;;
36751;SDS011;22718;49.494;7.036;2023-12-20T15:26:51;10.35;;;1.73;;
36751;SDS011;22718;49.494;7.036;2023-12-20T15:29:16;9.90;;;2.35;;
36751;SDS011;22718;49.494;7.036;2023-12-20T15:31:55;8.30;;;2.10;;
36751;SDS011;22718;49.494;7.036;2023-12-20T15:34:24;10.93;;;1.95;;
36751;SDS011;22718;49.494;7.036;2023-12-20T15:36:53;13.27;;;2.28;;
36751;SDS011;22718;49.494;7.036;2023-12-20T15:39:18;13.02;;;3.22;;
36751;SDS011;22718;49.494;7.036;2023-12-20T15:41:45;10.80;;;1.83;;
36751;SDS011;22718;49.494;7.036;2023-12-20T15:44:12;19.35;;;1.88;;
36751;SDS011;22718;49.494;7.036;2023-12-20T15:46:44;10.13;;;2.28;;
36751;SDS011;22718;49.494;7.036;2023-12-20T15:49:10;11.43;;;2.95;;
36751;SDS011;22718;49.494;7.036;2023-12-20T15:51:37;15.23;;;3.50;;
36751;SDS011;22718;49.494;7.036;2023-12-20T15:54:12;11.55;;;2.78;;
36751;SDS011;22718;49.494;7.036;2023-12-20T15:56:37;13.02;;;2.60;;